createdAt,value
2023-05-10T00:01:49.056Z,100877.13
2023-05-10T00:03:50.725Z,100881.53
2023-05-10T00:05:52.370Z,100858.59
2023-05-10T00:07:53.940Z,100881.25
2023-05-10T00:09:55.538Z,100885.78
2023-05-10T00:11:59.265Z,100876.88
2023-05-10T00:14:00.782Z,100892.84
2023-05-10T00:16:02.315Z,100888.91
2023-05-10T00:18:04.318Z,100895.41
2023-05-10T00:20:06.336Z,100893.72
2023-05-10T00:22:07.812Z,100893.84
2023-05-10T00:24:09.370Z,100893.16
2023-05-10T00:26:10.849Z,100882.50
2023-05-10T00:28:12.357Z,100888.03
2023-05-10T00:30:14.688Z,100884.50
2023-05-10T00:32:16.468Z,100884.63
2023-05-10T00:34:18.116Z,100885.63
2023-05-10T00:36:19.640Z,100888.44
2023-05-10T00:38:21.321Z,100894.81
2023-05-10T00:40:23.048Z,100888.88
2023-05-10T00:42:24.547Z,100898.63
2023-05-10T00:44:26.051Z,100903.91
2023-05-10T00:46:27.987Z,100907.56
2023-05-10T00:48:30.170Z,100912.06
2023-05-10T00:50:32.557Z,100911.41
2023-05-10T00:52:34.216Z,100916.78
2023-05-10T00:54:35.833Z,100915.91
2023-05-10T00:56:37.521Z,100913.22
2023-05-10T00:58:39.248Z,100920.44
2023-05-10T01:00:42.376Z,100917.59
2023-05-10T01:02:43.977Z,100919.47
2023-05-10T01:04:45.531Z,100910.53
2023-05-10T01:06:47.486Z,100912.50
2023-05-10T01:08:48.960Z,100909.81
2023-05-10T01:10:50.433Z,100918.75
2023-05-10T01:12:52.081Z,100910.69
2023-05-10T01:14:54.602Z,100914.09
2023-05-10T01:16:56.346Z,100915.91
2023-05-10T01:18:57.892Z,100915.75
2023-05-10T01:21:11.888Z,100921.13
2023-05-10T01:23:25.829Z,100909.53
2023-05-10T01:25:27.259Z,100906.84
2023-05-10T01:27:48.668Z,100909.53
2023-05-10T01:30:14.693Z,100906.13
2023-05-10T01:32:23.290Z,100908.00
2023-05-10T01:34:26.529Z,100896.25
2023-05-10T01:36:31.775Z,100917.59
2023-05-10T01:38:43.537Z,100919.47
2023-05-10T01:40:50.820Z,100922.00
2023-05-10T01:42:59.884Z,100921.00
2023-05-10T01:45:07.695Z,100922.84
2023-05-10T01:47:13.326Z,100921.84
2023-05-10T01:49:35.051Z,100924.53
2023-05-10T01:51:40.004Z,100905.72
2023-05-10T01:53:43.457Z,100929.19
2023-05-10T01:55:48.751Z,100924.84
2023-05-10T01:57:53.559Z,100921.28
2023-05-10T01:59:55.941Z,100926.50
2023-05-10T02:02:00.000Z,100919.16
2023-05-10T02:04:02.909Z,100923.69
2023-05-10T02:06:04.572Z,100914.78
2023-05-10T02:08:07.798Z,100910.94
2023-05-10T02:10:10.248Z,100924.53
2023-05-10T02:12:14.069Z,100928.09
2023-05-10T02:14:16.741Z,100921.69
2023-05-10T02:16:19.830Z,100927.06
2023-05-10T02:18:23.194Z,100929.06
2023-05-10T02:20:25.745Z,100924.69
2023-05-10T02:22:28.265Z,100930.91
2023-05-10T02:24:30.649Z,100926.38
2023-05-10T02:26:34.103Z,100922.97
2023-05-10T02:28:36.623Z,100925.53
2023-05-10T02:30:38.881Z,100930.78
2023-05-10T02:32:40.935Z,100927.06
2023-05-10T02:34:43.001Z,100931.63
2023-05-10T02:36:44.650Z,100930.63
2023-05-10T02:38:47.036Z,100934.16
2023-05-10T02:40:48.823Z,100936.00
2023-05-10T02:42:53.221Z,100937.84
2023-05-10T02:44:58.005Z,100927.94
2023-05-10T02:46:59.812Z,100930.78
2023-05-10T02:49:01.883Z,100933.47
2023-05-10T02:51:05.978Z,100927.22
2023-05-10T02:53:20.310Z,100929.06
2023-05-10T02:55:23.500Z,100927.94
2023-05-10T02:57:29.634Z,100924.38
2023-05-10T02:59:31.901Z,100925.25
2023-05-10T03:01:33.559Z,100919.72
2023-05-10T03:03:35.026Z,100915.91
2023-05-10T03:05:36.451Z,100913.38
2023-05-10T03:07:38.375Z,100918.75
2023-05-10T03:09:40.504Z,100918.88
2023-05-10T03:11:57.739Z,100900.06
2023-05-10T03:14:04.982Z,100909.13
2023-05-10T03:16:13.197Z,100901.88
2023-05-10T03:18:17.966Z,100914.34
2023-05-10T03:20:25.854Z,100909.97
2023-05-10T03:22:32.614Z,100911.66
2023-05-10T03:24:35.406Z,100907.84
2023-05-10T03:26:38.005Z,100912.38
2023-05-10T03:28:40.561Z,100909.69
2023-05-10T03:30:42.672Z,100918.59
2023-05-10T03:32:44.276Z,100924.84
2023-05-10T03:34:45.729Z,100923.84
2023-05-10T03:36:47.224Z,100918.59
2023-05-10T03:38:48.894Z,100921.28
2023-05-10T03:40:50.276Z,100919.47
2023-05-10T03:42:51.684Z,100904.31
2023-05-10T03:44:53.364Z,100914.06
2023-05-10T03:46:54.874Z,100911.25
2023-05-10T03:48:56.280Z,100911.25
2023-05-10T03:50:57.803Z,100913.81
2023-05-10T03:52:59.352Z,100913.81
2023-05-10T03:55:00.968Z,100914.69
2023-05-10T03:57:03.816Z,100913.81
2023-05-10T03:59:08.428Z,100915.50
2023-05-10T04:01:09.931Z,100917.44
2023-05-10T04:03:12.007Z,100914.91
2023-05-10T04:05:13.647Z,100909.53
2023-05-10T04:07:15.371Z,100901.31
2023-05-10T04:09:18.140Z,100900.47
2023-05-10T04:11:19.650Z,100898.63
2023-05-10T04:13:21.685Z,100902.22
2023-05-10T04:15:23.359Z,100895.69
2023-05-10T04:17:24.860Z,100908.28
2023-05-10T04:19:29.834Z,100908.16
2023-05-10T04:21:31.491Z,100902.78
2023-05-10T04:23:33.002Z,100899.22
2023-05-10T04:25:35.368Z,100896.41
2023-05-10T04:27:36.764Z,100901.09
2023-05-10T04:29:39.304Z,100898.53
2023-05-10T04:31:40.933Z,100893.00
2023-05-10T04:33:42.583Z,100907.44
2023-05-10T04:35:45.637Z,100904.91
2023-05-10T04:37:47.191Z,100902.91
2023-05-10T04:39:48.771Z,100906.47
2023-05-10T04:41:50.176Z,100904.34
2023-05-10T04:43:51.600Z,100904.34
2023-05-10T04:45:53.334Z,100900.78
2023-05-10T04:47:54.982Z,100902.47
2023-05-10T04:49:56.578Z,100899.94
2023-05-10T04:51:58.052Z,100901.78
2023-05-10T04:54:06.078Z,100896.53
2023-05-10T04:56:08.458Z,100892.16
2023-05-10T04:58:09.904Z,100897.41
2023-05-10T05:00:11.643Z,100895.69
2023-05-10T05:02:13.034Z,100892.03
2023-05-10T05:04:15.752Z,100883.81
2023-05-10T05:06:17.396Z,100892.59
2023-05-10T05:08:18.892Z,100896.25
2023-05-10T05:10:20.580Z,100891.72
2023-05-10T05:12:22.042Z,100893.44
2023-05-10T05:14:23.577Z,100894.28
2023-05-10T05:16:25.564Z,100894.28
2023-05-10T05:18:27.191Z,100888.03
2023-05-10T05:20:28.800Z,100894.41
2023-05-10T05:22:30.490Z,100894.41
2023-05-10T05:24:35.788Z,100890.03
2023-05-10T05:26:37.795Z,100891.72
2023-05-10T05:28:39.378Z,100888.91
2023-05-10T05:30:40.906Z,100896.97
2023-05-10T05:32:42.348Z,100900.50
2023-05-10T05:34:45.382Z,100902.06
2023-05-10T05:36:47.003Z,100895.84
2023-05-10T05:38:48.704Z,100904.03
2023-05-10T05:40:50.339Z,100886.63
2023-05-10T05:42:51.860Z,100914.78
2023-05-10T05:44:53.325Z,100914.22
2023-05-10T05:46:54.984Z,100919.47
2023-05-10T05:48:56.617Z,100914.94
2023-05-10T05:50:58.311Z,100911.25
2023-05-10T05:52:59.702Z,100913.94
2023-05-10T05:55:01.243Z,100921.03
2023-05-10T05:57:02.686Z,100917.22
2023-05-10T05:59:04.625Z,100924.28
2023-05-10T06:01:06.140Z,100921.44
2023-05-10T06:03:08.399Z,100913.53
2023-05-10T06:05:09.988Z,100918.91
2023-05-10T06:07:11.528Z,100916.22
2023-05-10T06:09:12.972Z,100923.41
2023-05-10T06:11:14.443Z,100919.06
2023-05-10T06:13:16.562Z,100919.19
2023-05-10T06:15:18.296Z,100922.75
2023-05-10T06:17:20.200Z,100917.22
2023-05-10T06:19:21.591Z,100916.38
2023-05-10T06:21:23.414Z,100926.81
2023-05-10T06:23:26.400Z,100931.22
2023-05-10T06:25:27.937Z,100933.06
2023-05-10T06:27:29.454Z,100932.94
2023-05-10T06:29:30.937Z,100930.09
2023-05-10T06:31:32.542Z,100936.34
2023-05-10T06:33:34.482Z,100935.47
2023-05-10T06:35:35.897Z,100943.69
2023-05-10T06:37:37.439Z,100933.06
2023-05-10T06:39:38.895Z,100937.75
2023-05-10T06:41:40.268Z,100937.88
2023-05-10T06:43:42.617Z,100943.13
2023-05-10T06:45:44.331Z,100942.97
2023-05-10T06:47:45.824Z,100948.91
2023-05-10T06:49:47.363Z,100941.00
2023-05-10T06:51:49.537Z,100942.81
2023-05-10T06:53:51.169Z,100945.38
2023-05-10T06:55:53.112Z,100948.19
2023-05-10T06:57:54.889Z,100950.06
2023-05-10T06:59:57.255Z,100951.91
2023-05-10T07:01:58.799Z,100947.50
2023-05-10T07:04:00.256Z,100945.66
2023-05-10T07:06:04.137Z,100951.03
2023-05-10T07:08:05.714Z,100949.34
2023-05-10T07:10:08.129Z,100949.22
2023-05-10T07:12:11.132Z,100946.38
2023-05-10T07:14:13.784Z,100956.97
2023-05-10T07:16:15.330Z,100952.59
2023-05-10T07:18:16.896Z,100956.84
2023-05-10T07:20:18.350Z,100969.44
2023-05-10T07:22:19.798Z,100966.75
2023-05-10T07:24:21.236Z,100961.38
2023-05-10T07:26:23.177Z,100963.22
2023-05-10T07:28:25.260Z,100964.22
2023-05-10T07:30:26.932Z,100961.66
2023-05-10T07:32:28.458Z,100959.81
2023-05-10T07:34:31.133Z,100956.16
2023-05-10T07:36:33.370Z,100962.38
2023-05-10T07:38:34.987Z,100964.91
2023-05-10T07:40:36.378Z,100964.91
2023-05-10T07:42:37.925Z,100968.63
2023-05-10T07:44:39.493Z,100965.91
2023-05-10T07:46:41.361Z,100971.31
2023-05-10T07:48:42.989Z,100968.63
2023-05-10T07:50:44.449Z,100973.13
2023-05-10T07:52:45.902Z,100971.31
2023-05-10T07:54:47.408Z,100968.72
2023-05-10T07:56:49.155Z,100975.09
2023-05-10T07:58:50.649Z,100971.56
2023-05-10T08:00:52.194Z,100967.03
2023-05-10T08:02:54.038Z,100973.13
2023-05-10T08:04:56.750Z,100974.97
2023-05-10T08:06:58.345Z,100977.53
2023-05-10T08:08:59.820Z,100974.81
2023-05-10T08:11:01.607Z,100980.22
2023-05-10T08:13:03.014Z,100977.78
2023-05-10T08:15:05.001Z,100981.50
2023-05-10T08:17:06.776Z,100982.31
2023-05-10T08:19:08.287Z,100986.69
2023-05-10T08:21:09.998Z,100992.94
2023-05-10T08:23:13.104Z,100982.16
2023-05-10T08:25:14.603Z,100997.97
2023-05-10T08:27:16.041Z,100991.72
2023-05-10T08:29:17.963Z,100997.53
2023-05-10T08:31:19.686Z,100996.38
2023-05-10T08:33:21.405Z,101003.19
2023-05-10T08:35:22.892Z,101001.16
2023-05-10T08:37:24.578Z,101012.66
2023-05-10T08:39:30.509Z,101009.69
2023-05-10T08:41:34.219Z,101010.38
2023-05-10T08:43:36.766Z,100997.63
2023-05-10T08:45:39.067Z,101014.75
2023-05-10T08:47:40.676Z,101019.31
2023-05-10T08:49:42.579Z,101020.00
2023-05-10T08:51:48.350Z,101027.09
2023-05-10T08:53:49.790Z,101027.28
2023-05-10T08:55:51.576Z,101028.84
2023-05-10T08:57:53.077Z,101039.38
2023-05-10T08:59:54.570Z,101032.72
2023-05-10T09:01:58.311Z,101037.81
2023-05-10T09:04:00.016Z,101041.81
2023-05-10T09:06:01.662Z,101042.25
2023-05-10T09:08:03.281Z,101043.63
2023-05-10T09:10:05.482Z,101040.50
2023-05-10T09:12:07.813Z,101039.94
2023-05-10T09:14:10.558Z,101056.53
2023-05-10T09:16:21.221Z,101050.47
2023-05-10T09:18:24.640Z,101054.00
2023-05-10T09:20:27.520Z,101060.25
2023-05-10T09:22:28.974Z,101064.19
2023-05-10T09:24:31.004Z,101068.84
2023-05-10T09:26:32.913Z,101072.25
2023-05-10T09:28:35.155Z,101074.38
2023-05-10T09:30:36.993Z,101070.84
2023-05-10T09:32:42.352Z,101079.19
2023-05-10T09:34:43.957Z,101083.75
2023-05-10T09:36:52.713Z,101076.66
2023-05-10T09:38:54.446Z,101082.03
2023-05-10T09:40:56.265Z,101085.72
2023-05-10T09:43:08.356Z,101088.97
2023-05-10T09:45:10.055Z,101090.94
2023-05-10T09:47:11.858Z,101094.66
2023-05-10T09:49:15.395Z,101092.22
2023-05-10T09:51:20.479Z,101089.53
2023-05-10T09:53:21.937Z,101082.47
2023-05-10T09:55:24.130Z,101086.59
2023-05-10T09:57:26.902Z,101092.41
2023-05-10T09:59:29.056Z,101092.66
2023-05-10T10:01:31.413Z,101100.50
2023-05-10T10:03:32.920Z,101093.81
2023-05-10T10:05:35.266Z,101099.19
2023-05-10T10:07:36.903Z,101097.06
2023-05-10T10:09:39.330Z,101094.38
2023-05-10T10:11:42.285Z,101102.44
2023-05-10T10:13:44.242Z,101099.75
2023-05-10T10:15:47.026Z,101102.59
2023-05-10T10:17:49.582Z,101099.75
2023-05-10T10:19:51.210Z,101100.03
2023-05-10T10:21:52.843Z,101100.03
2023-05-10T10:23:55.265Z,101094.94
2023-05-10T10:25:56.951Z,101100.31
2023-05-10T10:28:09.395Z,101095.69
2023-05-10T10:30:18.835Z,101092.56
2023-05-10T10:32:31.096Z,101091.13
2023-05-10T10:34:33.017Z,101084.16
2023-05-10T10:36:41.085Z,101087.31
2023-05-10T10:38:48.659Z,101088.97
2023-05-10T10:41:02.424Z,101082.47
2023-05-10T10:43:24.445Z,101082.59
2023-05-10T10:45:28.965Z,101088.13
2023-05-10T10:47:36.631Z,101090.97
2023-05-10T10:49:41.689Z,101089.56
2023-05-10T10:52:03.111Z,101087.72
2023-05-10T10:54:11.265Z,101096.09
2023-05-10T10:56:14.626Z,101091.69
2023-05-10T10:58:32.748Z,101096.38
2023-05-10T11:00:36.260Z,101096.50
2023-05-10T11:02:46.931Z,101085.06
2023-05-10T11:04:48.629Z,101089.84
2023-05-10T11:06:50.647Z,101085.59
2023-05-10T11:08:53.647Z,101091.09
2023-05-10T11:11:02.138Z,101091.38
2023-05-10T11:13:05.393Z,101084.69
2023-05-10T11:15:10.048Z,101090.38
2023-05-10T11:17:24.740Z,101097.03
2023-05-10T11:19:28.994Z,101096.47
2023-05-10T11:21:33.856Z,101089.84
2023-05-10T11:23:41.417Z,101092.13
2023-05-10T11:25:44.163Z,101087.00
2023-05-10T11:27:48.679Z,101087.59
2023-05-10T11:29:53.256Z,101088.00
2023-05-10T11:31:57.555Z,101089.88
2023-05-10T11:34:00.440Z,101075.84
2023-05-10T11:36:01.854Z,101079.53
2023-05-10T11:38:06.303Z,101078.63
2023-05-10T11:40:10.596Z,101071.28
2023-05-10T11:42:13.112Z,101077.41
2023-05-10T11:44:14.552Z,101075.69
2023-05-10T11:46:17.116Z,101071.44
2023-05-10T11:48:23.236Z,101071.69
2023-05-10T11:50:24.893Z,101077.94
2023-05-10T11:52:26.358Z,101055.69
2023-05-10T11:54:27.807Z,101075.38
2023-05-10T11:56:29.276Z,101087.16
2023-05-10T11:58:31.757Z,101074.53
2023-05-10T12:00:33.437Z,101080.06
2023-05-10T12:02:35.070Z,101077.06
2023-05-10T12:04:36.886Z,101077.50
2023-05-10T12:06:41.419Z,101074.53
2023-05-10T12:08:45.766Z,101077.63
2023-05-10T12:10:47.209Z,101071.53
2023-05-10T12:12:49.154Z,101072.25
2023-05-10T12:14:51.672Z,101058.63
2023-05-10T12:16:53.416Z,101068.69
2023-05-10T12:18:56.875Z,101064.88
2023-05-10T12:21:03.968Z,101064.19
2023-05-10T12:23:06.385Z,101065.03
2023-05-10T12:25:09.298Z,101070.41
2023-05-10T12:27:10.781Z,101072.84
2023-05-10T12:29:21.371Z,101067.88
2023-05-10T12:31:23.078Z,101071.69
2023-05-10T12:33:24.611Z,101076.34
2023-05-10T12:35:26.091Z,101070.44
2023-05-10T12:37:29.137Z,101066.72
2023-05-10T12:39:40.265Z,101068.00
2023-05-10T12:41:43.597Z,101062.06
2023-05-10T12:43:49.032Z,101059.94
2023-05-10T12:45:50.794Z,101069.72
2023-05-10T12:47:52.327Z,101066.03
2023-05-10T12:49:53.811Z,101071.53
2023-05-10T12:51:55.349Z,101070.44
2023-05-10T12:53:56.794Z,101084.72
2023-05-10T12:55:58.538Z,101080.34
2023-05-10T12:58:00.038Z,101074.94
2023-05-10T13:00:01.730Z,101075.25
2023-05-10T13:02:03.220Z,101070.84
2023-05-10T13:04:04.721Z,101073.06
2023-05-10T13:06:07.248Z,101062.44
2023-05-10T13:08:08.672Z,101072.72
2023-05-10T13:10:10.556Z,101070.84
2023-05-10T13:12:12.335Z,101073.09
2023-05-10T13:14:14.293Z,101072.06
2023-05-10T13:16:16.081Z,101077.28
2023-05-10T13:18:17.602Z,101071.41
2023-05-10T13:20:19.292Z,101058.38
2023-05-10T13:22:32.491Z,101076.88
2023-05-10T13:24:38.193Z,101074.25
2023-05-10T13:26:39.609Z,101088.44
2023-05-10T13:28:41.559Z,101079.81
2023-05-10T13:30:43.027Z,101080.19
2023-05-10T13:32:44.493Z,101081.31
2023-05-10T13:34:46.022Z,101084.38
2023-05-10T13:36:47.797Z,101073.97
2023-05-10T13:38:49.374Z,101069.25
2023-05-10T13:40:53.532Z,101067.31
2023-05-10T13:42:55.045Z,101065.84
2023-05-10T13:44:56.706Z,101063.16
2023-05-10T13:46:58.283Z,101063.16
2023-05-10T13:48:59.760Z,101060.84
2023-05-10T13:51:01.201Z,101053.09
2023-05-10T13:53:02.847Z,101064.34
2023-05-10T13:55:05.523Z,101062.50
2023-05-10T13:57:07.590Z,101060.91
2023-05-10T13:59:09.151Z,101059.44
2023-05-10T14:01:10.616Z,101055.06
2023-05-10T14:03:12.622Z,101052.50
2023-05-10T14:05:14.471Z,101053.50
2023-05-10T14:07:15.870Z,101046.28
2023-05-10T14:09:17.690Z,101052.38
2023-05-10T14:11:19.137Z,101054.81
2023-05-10T14:13:20.523Z,101051.16
2023-05-10T14:15:22.105Z,101053.59
2023-05-10T14:17:23.604Z,101045.69
2023-05-10T14:19:25.396Z,101043.97
2023-05-10T14:21:26.983Z,101035.06
2023-05-10T14:23:29.646Z,101039.19
2023-05-10T14:25:31.604Z,101034.56
2023-05-10T14:27:33.374Z,101029.59
2023-05-10T14:29:34.833Z,101035.53
2023-05-10T14:31:36.337Z,101033.00
2023-05-10T14:33:37.771Z,101032.28
2023-05-10T14:35:39.273Z,101026.53
2023-05-10T14:37:40.797Z,101037.25
2023-05-10T14:39:43.357Z,101025.09
2023-05-10T14:41:45.504Z,101027.28
2023-05-10T14:43:47.131Z,101022.19
2023-05-10T14:45:48.866Z,101022.94
2023-05-10T14:47:51.052Z,101015.13
2023-05-10T14:49:52.534Z,101017.22
2023-05-10T14:51:54.075Z,101025.25
2023-05-10T14:53:55.539Z,101016.47
2023-05-10T14:55:57.025Z,101021.97
2023-05-10T14:57:59.200Z,101017.59
2023-05-10T15:00:01.251Z,101020.88
2023-05-10T15:02:04.081Z,101020.28
2023-05-10T15:04:06.035Z,101030.41
2023-05-10T15:06:08.768Z,101027.00
2023-05-10T15:08:10.532Z,101022.63
2023-05-10T15:10:12.347Z,101011.03
2023-05-10T15:12:13.777Z,101019.22
2023-05-10T15:14:15.336Z,101020.66
2023-05-10T15:16:16.877Z,101026.28
2023-05-10T15:18:18.462Z,101016.56
2023-05-10T15:20:19.900Z,101018.75
2023-05-10T15:22:22.174Z,101020.09
2023-05-10T15:24:23.784Z,101017.88
2023-05-10T15:26:27.150Z,101023.38
2023-05-10T15:28:28.558Z,101026.69
2023-05-10T15:30:30.062Z,101020.22
2023-05-10T15:32:31.550Z,101023.28
2023-05-10T15:34:34.906Z,101023.88
2023-05-10T15:36:37.121Z,101024.38
2023-05-10T15:38:38.505Z,101025.13
2023-05-10T15:40:40.107Z,101024.25
2023-05-10T15:42:41.878Z,101029.88
2023-05-10T15:44:45.309Z,101037.06
2023-05-10T15:46:46.989Z,101035.47
2023-05-10T15:48:48.495Z,101042.09
2023-05-10T15:50:49.909Z,101039.41
2023-05-10T15:52:51.764Z,101046.94
2023-05-10T15:54:53.382Z,101053.78
2023-05-10T15:56:55.049Z,101040.38
2023-05-10T15:58:56.597Z,101046.59
2023-05-10T16:00:58.067Z,101044.91
2023-05-10T16:02:59.793Z,101043.06
2023-05-10T16:05:01.669Z,101044.50
2023-05-10T16:07:03.349Z,101045.13
2023-05-10T16:09:04.786Z,101046.09
2023-05-10T16:11:07.304Z,101044.06
2023-05-10T16:13:09.060Z,101047.34
2023-05-10T16:15:10.797Z,101042.09
2023-05-10T16:17:12.468Z,101049.00
2023-05-10T16:19:13.948Z,101049.75
2023-05-10T16:21:15.457Z,101050.50
2023-05-10T16:23:16.904Z,101059.38
2023-05-10T16:25:18.824Z,101059.38
2023-05-10T16:27:20.572Z,101060.25
2023-05-10T16:29:22.087Z,101065.84
2023-05-10T16:31:23.620Z,101069.25
2023-05-10T16:33:25.083Z,101063.91
2023-05-10T16:35:26.657Z,101067.41
2023-05-10T16:37:28.219Z,101067.19
2023-05-10T16:39:29.701Z,101077.03
2023-05-10T16:41:34.705Z,101075.47
2023-05-10T16:43:36.783Z,101072.78
2023-05-10T16:45:38.236Z,101068.53
2023-05-10T16:47:40.372Z,101075.34
2023-05-10T16:49:42.212Z,101068.50
2023-05-10T16:51:43.707Z,101063.00
2023-05-10T16:53:45.119Z,101070.56
2023-05-10T16:55:46.654Z,101071.19
2023-05-10T16:57:48.535Z,101063.00
2023-05-10T16:59:50.121Z,101067.63
2023-05-10T17:01:53.216Z,101063.16
2023-05-10T17:03:54.968Z,101069.47
2023-05-10T17:05:56.441Z,101064.13
2023-05-10T17:07:58.131Z,101059.59
2023-05-10T17:09:59.627Z,101064.00
2023-05-10T17:12:03.273Z,101064.84
2023-05-10T17:14:04.666Z,101058.53
2023-05-10T17:16:06.174Z,101055.09
2023-05-10T17:18:08.144Z,101060.25
2023-05-10T17:20:09.972Z,101062.31
2023-05-10T17:22:12.488Z,101055.84
2023-05-10T17:24:14.295Z,101057.28
2023-05-10T17:26:15.774Z,101064.59
2023-05-10T17:28:17.222Z,101065.69
2023-05-10T17:30:22.613Z,101064.13
2023-05-10T17:32:24.166Z,101058.53
2023-05-10T17:34:25.637Z,101066.22
2023-05-10T17:36:28.265Z,101061.91
2023-05-10T17:38:29.802Z,101067.78
2023-05-10T17:40:31.313Z,101066.72
2023-05-10T17:42:32.754Z,101061.22
2023-05-10T17:44:34.168Z,101062.91
2023-05-10T17:46:35.636Z,101062.28
2023-05-10T17:48:37.102Z,101071.28
2023-05-10T17:50:41.384Z,101078.50
2023-05-10T17:52:42.954Z,101083.00
2023-05-10T17:54:44.397Z,101075.94
2023-05-10T17:56:46.159Z,101078.84
2023-05-10T17:58:47.994Z,101080.22
2023-05-10T18:00:49.565Z,101075.47
2023-05-10T18:02:51.204Z,101077.41
2023-05-10T18:04:52.863Z,101083.25
2023-05-10T18:07:01.250Z,101088.72
2023-05-10T18:09:04.811Z,101089.56
2023-05-10T18:11:06.310Z,101092.72
2023-05-10T18:13:08.810Z,101085.78
2023-05-10T18:15:10.789Z,101091.91
2023-05-10T18:17:12.408Z,101090.94
2023-05-10T18:19:14.169Z,101103.44
2023-05-10T18:21:15.644Z,101099.94
2023-05-10T18:23:17.088Z,101105.03
2023-05-10T18:25:18.679Z,101097.13
2023-05-10T18:27:20.352Z,101107.97
2023-05-10T18:29:21.913Z,101098.59
2023-05-10T18:31:23.962Z,101104.56
2023-05-10T18:33:25.683Z,101098.22
2023-05-10T18:35:27.393Z,101096.03
2023-05-10T18:37:29.106Z,101108.44
2023-05-10T18:39:30.774Z,101110.78
2023-05-10T18:41:32.757Z,101108.22
2023-05-10T18:43:34.459Z,101108.69
2023-05-10T18:45:35.944Z,101112.09
2023-05-10T18:47:37.586Z,101118.34
2023-05-10T18:49:39.515Z,101114.03
2023-05-10T18:51:41.154Z,101119.41
2023-05-10T18:53:42.705Z,101120.28
2023-05-10T18:55:44.838Z,101124.75
2023-05-10T18:57:46.687Z,101132.56
2023-05-10T18:59:48.743Z,101131.47
2023-05-10T19:01:51.293Z,101136.00
2023-05-10T19:03:52.980Z,101112.81
2023-05-10T19:05:54.399Z,101134.28
2023-05-10T19:07:56.278Z,101138.66
2023-05-10T19:09:57.669Z,101138.75
2023-05-10T19:11:59.060Z,101144.38
2023-05-10T19:14:01.364Z,101141.84
2023-05-10T19:16:04.669Z,101144.59
2023-05-10T19:18:08.817Z,101143.16
2023-05-10T19:20:10.661Z,101151.41
2023-05-10T19:22:12.281Z,101153.13
2023-05-10T19:24:14.122Z,101151.53
2023-05-10T19:26:15.919Z,101155.06
2023-05-10T19:28:18.837Z,101159.44
2023-05-10T19:30:20.503Z,101156.91
2023-05-10T19:32:24.540Z,101161.50
2023-05-10T19:34:27.284Z,101164.81
2023-05-10T19:36:28.820Z,101163.00
2023-05-10T19:38:30.311Z,101171.88
2023-05-10T19:40:31.810Z,101172.28
2023-05-10T19:42:33.559Z,101175.22
2023-05-10T19:44:35.070Z,101180.00
2023-05-10T19:46:36.688Z,101182.81
2023-05-10T19:48:38.991Z,101190.47
2023-05-10T19:50:40.821Z,101184.03
2023-05-10T19:52:42.667Z,101192.69
2023-05-10T19:54:44.756Z,101183.53
2023-05-10T19:56:46.609Z,101196.72
2023-05-10T19:58:48.168Z,101195.47
2023-05-10T20:00:49.744Z,101196.94
2023-05-10T20:02:51.297Z,101194.75
2023-05-10T20:04:52.766Z,101195.97
2023-05-10T20:06:54.405Z,101199.13
2023-05-10T20:08:55.944Z,101205.94
2023-05-10T20:10:59.131Z,101210.09
2023-05-10T20:13:00.886Z,101213.38
2023-05-10T20:15:02.892Z,101210.56
2023-05-10T20:17:04.471Z,101215.81
2023-05-10T20:19:06.268Z,101208.63
2023-05-10T20:21:07.781Z,101211.19
2023-05-10T20:23:09.302Z,101211.78
2023-05-10T20:25:10.969Z,101212.50
2023-05-10T20:27:12.408Z,101216.03
2023-05-10T20:29:13.861Z,101214.97
2023-05-10T20:31:15.277Z,101221.06
2023-05-10T20:33:16.820Z,101197.41
2023-05-10T20:35:18.560Z,101213.50
2023-05-10T20:37:20.365Z,101216.03
2023-05-10T20:39:21.887Z,101222.28
2023-05-10T20:41:23.544Z,101223.00
2023-05-10T20:43:24.974Z,101233.63
2023-05-10T20:45:26.508Z,101227.16
2023-05-10T20:47:28.169Z,101229.56
2023-05-10T20:49:29.729Z,101229.31
2023-05-10T20:51:33.192Z,101233.72
2023-05-10T20:53:34.588Z,101228.22
2023-05-10T20:55:36.050Z,101229.78
2023-05-10T20:57:37.552Z,101229.66
2023-05-10T20:59:39.329Z,101231.38
2023-05-10T21:01:40.973Z,101238.56
2023-05-10T21:03:42.451Z,101233.22
2023-05-10T21:05:43.918Z,101236.63
2023-05-10T21:07:45.387Z,101238.31
2023-05-10T21:09:46.807Z,101240.75
2023-05-10T21:11:48.800Z,101241.34
2023-05-10T21:13:51.014Z,101238.41
2023-05-10T21:15:52.482Z,101240.00
2023-05-10T21:17:54.420Z,101239.00
2023-05-10T21:19:56.013Z,101243.28
2023-05-10T21:21:59.107Z,101246.81
2023-05-10T21:24:00.674Z,101247.66
2023-05-10T21:26:02.871Z,101250.34
2023-05-10T21:28:04.416Z,101248.38
2023-05-10T21:30:06.605Z,101248.53
2023-05-10T21:32:08.145Z,101257.31
2023-05-10T21:34:09.626Z,101254.50
2023-05-10T21:36:11.050Z,101243.63
2023-05-10T21:38:12.870Z,101253.53
2023-05-10T21:40:14.571Z,101255.94
2023-05-10T21:42:16.070Z,101245.06
2023-05-10T21:44:17.547Z,101244.94
2023-05-10T21:46:19.529Z,101250.19
2023-05-10T21:48:21.257Z,101250.06
2023-05-10T21:50:22.841Z,101252.72
2023-05-10T21:52:24.312Z,101253.59
2023-05-10T21:54:25.768Z,101250.91
2023-05-10T21:56:27.456Z,101259.69
2023-05-10T21:58:29.149Z,101257.13
2023-05-10T22:00:31.720Z,101257.88
2023-05-10T22:02:35.039Z,101259.44
2023-05-10T22:04:36.546Z,101262.13
2023-05-10T22:06:38.191Z,101254.66
2023-05-10T22:08:39.700Z,101264.28
2023-05-10T22:10:41.165Z,101256.38
2023-05-10T22:12:42.571Z,101257.97
2023-05-10T22:14:43.962Z,101256.25
2023-05-10T22:16:45.419Z,101256.25
2023-05-10T22:18:46.938Z,101252.47
2023-05-10T22:20:48.405Z,101257.84
2023-05-10T22:22:49.938Z,101255.28
2023-05-10T22:24:51.398Z,101254.31
2023-05-10T22:26:56.156Z,101255.88
2023-05-10T22:28:57.768Z,101258.56
2023-05-10T22:30:59.178Z,101249.25
2023-05-10T22:33:00.735Z,101251.84
2023-05-10T22:35:02.440Z,101245.59
2023-05-10T22:37:03.972Z,101253.66
2023-05-10T22:39:05.481Z,101246.47
2023-05-10T22:41:07.094Z,101251.84
2023-05-10T22:43:08.585Z,101253.53
2023-05-10T22:45:10.397Z,101253.53
2023-05-10T22:47:11.953Z,101248.16
2023-05-10T22:49:13.471Z,101250.00
2023-05-10T22:51:14.959Z,101246.31
2023-05-10T22:53:16.443Z,101250.84
2023-05-10T22:55:17.896Z,101251.44
2023-05-10T22:57:19.601Z,101252.16
2023-05-10T22:59:21.235Z,101251.19
2023-05-10T23:01:22.746Z,101252.03
2023-05-10T23:03:24.694Z,101258.25
2023-05-10T23:05:26.754Z,101250.91
2023-05-10T23:07:28.305Z,101251.78
2023-05-10T23:09:29.770Z,101256.28
2023-05-10T23:11:31.376Z,101258.13
2023-05-10T23:13:32.936Z,101251.91
2023-05-10T23:15:36.109Z,101256.16
2023-05-10T23:17:37.592Z,101255.28
2023-05-10T23:19:39.159Z,101252.63